createdAt,value
2018-03-18T00:01:46.446Z,64.30
2018-03-18T00:04:13.537Z,64.50
2018-03-18T00:06:40.764Z,64.40
2018-03-18T00:09:07.823Z,64.40
2018-03-18T00:11:34.906Z,64.60
2018-03-18T00:14:01.246Z,64.60
2018-03-18T00:16:34.586Z,63.50
2018-03-18T00:19:00.898Z,64.90
2018-03-18T00:21:27.962Z,64.00
2018-03-18T00:23:54.319Z,64.00
2018-03-18T00:26:20.663Z,64.00
2018-03-18T00:28:47.013Z,64.50
2018-03-18T00:31:14.849Z,65.50
2018-03-18T00:33:42.690Z,64.10
2018-03-18T00:36:09.018Z,64.00
2018-03-18T00:38:35.367Z,64.60
2018-03-18T00:41:01.679Z,65.00
2018-03-18T00:43:28.724Z,65.00
2018-03-18T00:45:55.214Z,64.80
2018-03-18T00:48:23.022Z,66.30
2018-03-18T00:50:49.385Z,66.20
2018-03-18T00:53:15.733Z,65.90
2018-03-18T00:55:42.097Z,65.10
2018-03-18T00:58:09.188Z,64.40
2018-03-18T01:00:35.519Z,64.30
2018-03-18T01:03:01.877Z,66.70
2018-03-18T01:05:29.686Z,64.80
2018-03-18T01:07:56.163Z,64.80
2018-03-18T01:10:24.045Z,65.50
2018-03-18T01:12:51.148Z,64.70
2018-03-18T01:15:17.490Z,64.60
2018-03-18T01:17:43.861Z,65.60
2018-03-18T01:20:11.692Z,64.50
2018-03-18T01:22:38.042Z,64.40
2018-03-18T01:25:05.141Z,64.50
2018-03-18T01:27:32.235Z,64.30
2018-03-18T01:29:58.562Z,64.30
2018-03-18T01:32:25.676Z,65.20
2018-03-18T01:34:51.981Z,65.20
2018-03-18T01:37:19.075Z,65.40
2018-03-18T01:39:45.508Z,65.40
2018-03-18T01:42:11.841Z,63.70
2018-03-18T01:44:38.217Z,64.00
2018-03-18T01:47:05.322Z,63.50
2018-03-18T01:49:31.637Z,63.30
2018-03-18T01:51:57.993Z,63.10
2018-03-18T01:54:24.339Z,64.40
2018-03-18T01:56:51.448Z,63.20
2018-03-18T01:59:17.809Z,62.40
2018-03-18T02:01:44.178Z,62.70
2018-03-18T02:04:10.549Z,62.30
2018-03-18T02:06:36.931Z,61.70
2018-03-18T02:09:04.054Z,62.00
2018-03-18T02:11:30.384Z,61.90
2018-03-18T02:13:57.003Z,62.00
2018-03-18T02:16:23.346Z,60.90
2018-03-18T02:18:49.719Z,61.70
2018-03-18T02:21:16.811Z,61.20
2018-03-18T02:23:43.156Z,61.20
2018-03-18T02:26:09.518Z,61.00
2018-03-18T02:28:36.627Z,62.40
2018-03-18T02:31:03.023Z,61.50
2018-03-18T02:33:29.393Z,62.10
2018-03-18T02:35:55.718Z,60.80
2018-03-18T02:38:23.593Z,61.20
2018-03-18T02:40:49.974Z,61.10
2018-03-18T02:43:17.097Z,61.50
2018-03-18T02:45:43.518Z,61.40
2018-03-18T02:48:09.899Z,62.30
2018-03-18T02:50:36.308Z,61.00
2018-03-18T02:53:02.710Z,60.90
2018-03-18T02:55:29.039Z,61.70
2018-03-18T02:57:55.358Z,61.60
2018-03-18T03:00:21.784Z,60.80
2018-03-18T03:02:48.143Z,60.40
2018-03-18T03:05:14.515Z,60.70
2018-03-18T03:07:40.852Z,61.20
2018-03-18T03:10:07.294Z,62.60
2018-03-18T03:12:33.653Z,61.70
2018-03-18T03:15:00.028Z,61.40
2018-03-18T03:17:26.434Z,61.80
2018-03-18T03:19:54.279Z,62.40
2018-03-18T03:22:20.626Z,62.20
2018-03-18T03:24:46.985Z,61.00
2018-03-18T03:27:14.052Z,62.00
2018-03-18T03:29:40.486Z,61.90
2018-03-18T03:32:06.871Z,61.10
2018-03-18T03:34:33.952Z,62.20
2018-03-18T03:37:01.069Z,62.00
2018-03-18T03:39:27.423Z,62.00
2018-03-18T03:41:54.828Z,62.60
2018-03-18T03:44:21.184Z,61.60
2018-03-18T03:46:47.693Z,63.40
2018-03-18T03:49:14.053Z,62.10
2018-03-18T03:51:41.131Z,60.90
2018-03-18T03:54:08.188Z,62.00
2018-03-18T03:56:35.340Z,61.80
2018-03-18T03:59:01.676Z,61.60
2018-03-18T04:01:28.103Z,61.70
2018-03-18T04:03:54.586Z,62.20
2018-03-18T04:06:20.921Z,62.50
2018-03-18T04:08:47.278Z,61.60
2018-03-18T04:11:14.383Z,61.50
2018-03-18T04:13:40.713Z,61.40
2018-03-18T04:16:07.111Z,62.00
2018-03-18T04:18:33.469Z,62.70
2018-03-18T04:20:59.822Z,62.00
2018-03-18T04:23:26.156Z,61.30
2018-03-18T04:25:52.496Z,61.90
2018-03-18T04:28:20.465Z,62.00
2018-03-18T04:30:47.605Z,61.30
2018-03-18T04:33:13.949Z,61.20
2018-03-18T04:35:41.799Z,61.20
2018-03-18T04:38:08.135Z,61.20
2018-03-18T04:40:35.995Z,61.90
2018-03-18T04:43:02.323Z,61.80
2018-03-18T04:45:28.712Z,62.10
2018-03-18T04:47:55.049Z,61.30
2018-03-18T04:50:21.439Z,61.00
2018-03-18T04:52:48.575Z,61.80
2018-03-18T04:55:16.573Z,61.40
2018-03-18T04:57:43.722Z,61.40
2018-03-18T05:00:11.029Z,61.40
2018-03-18T05:02:38.196Z,61.50
2018-03-18T05:05:04.579Z,61.40
2018-03-18T05:07:30.953Z,61.20
2018-03-18T05:09:57.331Z,61.30
2018-03-18T05:12:24.416Z,61.10
2018-03-18T05:14:51.533Z,61.00
2018-03-18T05:17:17.873Z,61.00
2018-03-18T05:19:44.217Z,60.60
2018-03-18T05:22:10.559Z,61.10
2018-03-18T05:24:36.916Z,61.00
2018-03-18T05:27:04.107Z,61.20
2018-03-18T05:29:31.159Z,60.90
2018-03-18T05:31:57.529Z,60.80
2018-03-18T05:34:23.859Z,60.90
2018-03-18T05:36:50.201Z,60.90
2018-03-18T05:39:16.565Z,61.20
2018-03-18T05:41:42.904Z,61.60
2018-03-18T05:44:09.988Z,60.80
2018-03-18T05:46:36.325Z,60.70
2018-03-18T05:49:02.700Z,61.00
2018-03-18T05:51:29.762Z,61.40
2018-03-18T05:53:56.123Z,61.30
2018-03-18T05:56:24.229Z,61.30
2018-03-18T05:58:50.583Z,61.90
2018-03-18T06:01:17.662Z,60.90
2018-03-18T06:03:44.065Z,60.80
2018-03-18T06:06:11.124Z,61.30
2018-03-18T06:08:38.183Z,61.10
2018-03-18T06:11:04.578Z,61.10
2018-03-18T06:13:31.024Z,60.80
2018-03-18T06:15:58.080Z,60.10
2018-03-18T06:18:25.238Z,60.40
2018-03-18T06:20:52.290Z,59.80
2018-03-18T06:23:21.102Z,59.80
2018-03-18T06:25:47.462Z,59.80
2018-03-18T06:28:13.798Z,60.30
2018-03-18T06:30:40.168Z,61.00
2018-03-18T06:33:07.213Z,60.60
2018-03-18T06:35:34.307Z,59.60
2018-03-18T06:38:00.635Z,59.50
2018-03-18T06:40:26.975Z,59.70
2018-03-18T06:42:53.314Z,59.70
2018-03-18T06:45:19.683Z,59.30
2018-03-18T06:47:46.850Z,59.50
2018-03-18T06:50:13.198Z,59.50
2018-03-18T06:52:41.063Z,59.10
2018-03-18T06:55:07.423Z,59.10
2018-03-18T06:57:33.782Z,58.90
2018-03-18T07:00:00.903Z,58.80
2018-03-18T07:02:27.223Z,58.80
2018-03-18T07:04:53.550Z,59.20
2018-03-18T07:07:20.702Z,59.10
2018-03-18T07:09:47.035Z,59.00
2018-03-18T07:12:13.506Z,59.30
2018-03-18T07:14:39.874Z,58.70
2018-03-18T07:17:06.223Z,58.80
2018-03-18T07:19:32.548Z,57.90
2018-03-18T07:21:59.056Z,58.20
2018-03-18T07:24:25.390Z,57.60
2018-03-18T07:26:51.770Z,57.30
2018-03-18T07:29:18.106Z,57.50
2018-03-18T07:31:45.198Z,57.10
2018-03-18T07:34:12.463Z,57.00
2018-03-18T07:36:38.815Z,57.20
2018-03-18T07:39:05.123Z,57.40
2018-03-18T07:41:31.482Z,57.80
2018-03-18T07:43:58.430Z,57.00
2018-03-18T07:46:25.604Z,56.50
2018-03-18T07:48:51.952Z,56.40
2018-03-18T07:51:19.056Z,56.60
2018-03-18T07:53:45.415Z,56.50
2018-03-18T07:56:12.559Z,56.00
2018-03-18T07:58:39.673Z,55.40
2018-03-18T08:01:06.032Z,55.30
2018-03-18T08:03:32.540Z,55.10
2018-03-18T08:05:58.911Z,55.10
2018-03-18T08:08:26.057Z,54.30
2018-03-18T08:10:53.181Z,54.40
2018-03-18T08:13:20.336Z,54.50
2018-03-18T08:15:46.680Z,54.30
2018-03-18T08:18:13.309Z,53.90
2018-03-18T08:20:40.428Z,53.40
2018-03-18T08:23:06.789Z,53.20
2018-03-18T08:25:34.806Z,53.30
2018-03-18T08:28:01.999Z,52.60
2018-03-18T08:30:28.444Z,52.40
2018-03-18T08:32:54.994Z,52.40
2018-03-18T08:35:22.062Z,51.40
2018-03-18T08:37:49.191Z,52.90
2018-03-18T08:40:16.407Z,51.00
2018-03-18T08:42:42.782Z,50.90
2018-03-18T08:45:09.866Z,50.80
2018-03-18T08:47:36.227Z,50.70
2018-03-18T08:50:02.606Z,49.20
2018-03-18T08:52:29.776Z,49.50
2018-03-18T08:54:56.137Z,49.20
2018-03-18T08:57:23.296Z,48.50
2018-03-18T08:59:49.790Z,48.50
2018-03-18T09:02:17.696Z,47.70
2018-03-18T09:04:44.026Z,47.70
2018-03-18T09:07:11.224Z,46.90
2018-03-18T09:09:37.577Z,46.90
2018-03-18T09:12:04.454Z,46.50
2018-03-18T09:14:30.797Z,46.50
2018-03-18T09:16:57.147Z,45.50
2018-03-18T09:19:24.325Z,46.20
2018-03-18T09:21:51.561Z,46.20
2018-03-18T09:24:18.616Z,45.70
2018-03-18T09:26:44.991Z,45.60
2018-03-18T09:29:11.372Z,44.80
2018-03-18T09:31:37.778Z,45.00
2018-03-18T09:34:04.215Z,46.30
2018-03-18T09:36:31.429Z,44.00
2018-03-18T09:38:59.508Z,43.90
2018-03-18T09:41:25.862Z,44.30
2018-03-18T09:43:52.968Z,44.60
2018-03-18T09:46:19.334Z,44.50
2018-03-18T09:48:45.693Z,44.20
2018-03-18T09:51:12.121Z,43.90
2018-03-18T09:53:38.664Z,43.50
2018-03-18T09:56:05.073Z,43.00
2018-03-18T09:58:31.463Z,42.70
2018-03-18T10:00:57.817Z,42.60
2018-03-18T10:03:24.156Z,42.50
2018-03-18T10:05:50.505Z,42.80
2018-03-18T10:08:16.909Z,42.70
2018-03-18T10:10:44.030Z,43.10
2018-03-18T10:13:10.394Z,43.00
2018-03-18T10:15:36.727Z,42.80
2018-03-18T10:18:03.860Z,43.40
2018-03-18T10:20:30.302Z,43.30
2018-03-18T10:22:56.723Z,42.80
2018-03-18T10:25:23.081Z,42.90
2018-03-18T10:27:49.502Z,43.30
2018-03-18T10:30:15.969Z,42.80
2018-03-18T10:32:43.110Z,42.00
2018-03-18T10:35:09.426Z,42.50
2018-03-18T10:37:36.659Z,42.80
2018-03-18T10:40:03.958Z,41.90
2018-03-18T10:42:30.382Z,41.90
2018-03-18T10:44:56.760Z,41.70
2018-03-18T10:47:23.234Z,41.90
2018-03-18T10:49:49.643Z,41.70
2018-03-18T10:52:16.101Z,41.80
2018-03-18T10:54:43.383Z,41.40
2018-03-18T10:57:09.760Z,41.50
2018-03-18T10:59:36.135Z,41.50
2018-03-18T11:02:05.378Z,42.10
2018-03-18T11:04:31.793Z,41.70
2018-03-18T11:06:58.139Z,41.30
2018-03-18T11:09:24.504Z,41.60
2018-03-18T11:11:50.914Z,41.60
2018-03-18T11:14:17.350Z,41.40
2018-03-18T11:16:44.433Z,42.60
2018-03-18T11:19:11.489Z,42.80
2018-03-18T11:21:37.827Z,42.70
2018-03-18T11:24:04.202Z,41.70
2018-03-18T11:26:30.547Z,42.20
2018-03-18T11:28:57.676Z,40.70
2018-03-18T11:31:24.056Z,40.60
2018-03-18T11:33:50.363Z,41.60
2018-03-18T11:36:16.919Z,42.40
2018-03-18T11:38:43.252Z,42.50
2018-03-18T11:41:10.367Z,41.10
2018-03-18T11:43:37.503Z,41.30
2018-03-18T11:46:03.872Z,41.20
2018-03-18T11:48:30.191Z,41.60
2018-03-18T11:50:57.313Z,41.60
2018-03-18T11:53:23.670Z,41.50
2018-03-18T11:55:50.873Z,41.70
2018-03-18T11:58:17.894Z,42.40
2018-03-18T12:00:44.976Z,42.70
2018-03-18T12:03:11.318Z,42.40
2018-03-18T12:05:39.150Z,42.60
2018-03-18T12:08:05.504Z,42.60
2018-03-18T12:10:31.866Z,41.90
2018-03-18T12:12:58.206Z,41.40
2018-03-18T12:15:25.370Z,41.60
2018-03-18T12:17:52.467Z,41.30
2018-03-18T12:20:18.822Z,41.30
2018-03-18T12:22:45.142Z,42.30
2018-03-18T12:25:11.499Z,43.10
2018-03-18T12:27:38.618Z,42.20
2018-03-18T12:30:04.967Z,42.10
2018-03-18T12:32:32.080Z,42.40
2018-03-18T12:34:58.440Z,42.30
2018-03-18T12:37:24.800Z,42.30
2018-03-18T12:40:04.193Z,41.70
2018-03-18T12:42:43.109Z,41.70
2018-03-18T12:45:09.790Z,42.90
2018-03-18T12:47:36.916Z,42.10
2018-03-18T12:50:04.067Z,42.10
2018-03-18T12:52:30.421Z,41.90
2018-03-18T12:54:56.756Z,41.30
2018-03-18T12:57:23.880Z,41.60
2018-03-18T12:59:50.241Z,41.60
2018-03-18T13:02:17.343Z,40.70
2018-03-18T13:04:43.915Z,40.60
2018-03-18T13:07:11.169Z,41.20
2018-03-18T13:09:37.527Z,41.10
2018-03-18T13:12:03.902Z,41.60
2018-03-18T13:14:30.278Z,41.10
2018-03-18T13:16:57.187Z,39.90
2018-03-18T13:19:23.527Z,39.60
2018-03-18T13:21:49.871Z,39.50
2018-03-18T13:24:16.971Z,39.10
2018-03-18T13:26:43.320Z,38.90
2018-03-18T13:29:09.658Z,39.40
2018-03-18T13:31:36.005Z,38.30
2018-03-18T13:34:02.333Z,38.90
2018-03-18T13:36:29.444Z,38.20
2018-03-18T13:38:56.531Z,38.50
2018-03-18T13:41:23.645Z,37.20
2018-03-18T13:43:50.006Z,37.10
2018-03-18T13:46:16.359Z,37.00
2018-03-18T13:48:42.742Z,36.40
2018-03-18T13:51:09.110Z,36.30
2018-03-18T13:53:35.446Z,37.10
2018-03-18T13:56:03.081Z,36.80
2018-03-18T13:58:30.235Z,36.40
2018-03-18T14:00:56.562Z,36.20
2018-03-18T14:03:22.890Z,37.20
2018-03-18T14:05:49.984Z,34.20
2018-03-18T14:08:16.363Z,34.10
2018-03-18T14:10:42.699Z,35.40
2018-03-18T14:13:09.249Z,35.10
2018-03-18T14:15:35.572Z,34.70
2018-03-18T14:18:01.933Z,34.20
2018-03-18T14:20:29.007Z,33.00
2018-03-18T14:22:55.366Z,32.90
2018-03-18T14:25:22.532Z,32.50
2018-03-18T14:27:49.972Z,32.90
2018-03-18T14:30:16.332Z,32.80
2018-03-18T14:32:43.447Z,32.20
2018-03-18T14:35:09.776Z,32.10
2018-03-18T14:37:36.122Z,32.00
2018-03-18T14:40:03.240Z,29.90
2018-03-18T14:42:29.588Z,29.90
2018-03-18T14:44:55.919Z,29.70
2018-03-18T14:47:22.254Z,29.10
2018-03-18T14:49:48.625Z,29.90
2018-03-18T14:52:15.707Z,28.20
2018-03-18T14:54:42.143Z,28.10
2018-03-18T14:57:08.471Z,27.70
2018-03-18T14:59:34.880Z,28.10
2018-03-18T15:02:01.973Z,26.80
2018-03-18T15:04:28.334Z,26.80
2018-03-18T15:06:55.746Z,27.40
2018-03-18T15:09:22.092Z,26.80
2018-03-18T15:11:48.568Z,26.20
2018-03-18T15:14:15.657Z,27.10
2018-03-18T15:16:42.016Z,27.10
2018-03-18T15:19:09.846Z,26.50
2018-03-18T15:21:36.181Z,26.50
2018-03-18T15:24:02.534Z,26.40
2018-03-18T15:26:28.874Z,26.60
2018-03-18T15:28:55.219Z,26.80
2018-03-18T15:31:21.587Z,26.80
2018-03-18T15:33:47.959Z,26.70
2018-03-18T15:36:14.339Z,27.40
2018-03-18T15:38:40.807Z,27.50
2018-03-18T15:41:07.164Z,27.50
2018-03-18T15:43:33.501Z,27.60
2018-03-18T15:45:59.948Z,27.80
2018-03-18T15:48:27.019Z,28.50
2018-03-18T15:50:53.716Z,28.40
2018-03-18T15:53:20.049Z,27.60
2018-03-18T15:55:46.388Z,28.60
2018-03-18T15:58:12.720Z,28.40
2018-03-18T16:00:39.831Z,28.90
2018-03-18T16:03:06.311Z,28.70
2018-03-18T16:05:33.438Z,28.80
2018-03-18T16:08:01.276Z,28.20
2018-03-18T16:10:27.723Z,28.20
2018-03-18T16:12:54.050Z,28.90
2018-03-18T16:15:20.679Z,28.90
2018-03-18T16:17:47.019Z,29.30
2018-03-18T16:20:14.138Z,29.30
2018-03-18T16:22:41.234Z,29.20
2018-03-18T16:25:07.612Z,29.40
2018-03-18T16:27:33.943Z,29.90
2018-03-18T16:30:12.657Z,31.60
2018-03-18T16:32:38.953Z,31.80
2018-03-18T16:35:05.286Z,31.10
2018-03-18T16:37:32.364Z,32.70
2018-03-18T16:39:59.485Z,32.90
2018-03-18T16:42:25.801Z,32.90
2018-03-18T16:44:52.116Z,32.80
2018-03-18T16:47:18.461Z,33.50
2018-03-18T16:49:44.837Z,34.10
2018-03-18T16:52:11.929Z,32.90
2018-03-18T16:54:38.303Z,32.90
2018-03-18T16:57:05.402Z,34.00
2018-03-18T16:59:31.704Z,34.00
2018-03-18T17:01:58.055Z,34.80
2018-03-18T17:04:24.512Z,34.90
2018-03-18T17:06:50.858Z,35.80
2018-03-18T17:09:17.240Z,37.50
2018-03-18T17:11:43.597Z,37.40
2018-03-18T17:14:09.921Z,38.80
2018-03-18T17:16:36.272Z,38.90
2018-03-18T17:19:03.422Z,41.40
2018-03-18T17:21:29.752Z,41.30
2018-03-18T17:23:56.095Z,42.70
2018-03-18T17:26:23.206Z,43.80
2018-03-18T17:28:49.541Z,43.70
2018-03-18T17:31:15.909Z,44.00
2018-03-18T17:33:42.509Z,44.40
2018-03-18T17:36:09.492Z,44.70
2018-03-18T17:38:35.848Z,45.00
2018-03-18T17:41:03.068Z,45.90
2018-03-18T17:43:29.533Z,45.90
2018-03-18T17:46:08.792Z,46.40
2018-03-18T17:48:48.100Z,46.90
2018-03-18T17:51:26.727Z,46.90
2018-03-18T17:56:53.778Z,47.50
2018-03-18T17:59:20.903Z,47.70
2018-03-18T18:01:47.377Z,47.60
2018-03-18T18:04:14.583Z,48.70
2018-03-18T18:06:41.090Z,48.60
2018-03-18T18:21:26.198Z,51.90
2018-03-18T18:23:52.522Z,52.80
2018-03-18T18:26:18.840Z,53.50
2018-03-18T18:28:45.296Z,53.90
2018-03-18T18:31:12.640Z,54.20
2018-03-18T18:33:39.021Z,54.80
2018-03-18T18:36:05.336Z,55.10
2018-03-18T18:38:31.620Z,55.00
2018-03-18T18:40:58.732Z,55.70
2018-03-18T18:43:25.929Z,55.80
2018-03-18T18:45:52.217Z,55.80
2018-03-18T18:48:19.241Z,56.00
2018-03-18T18:50:46.416Z,56.50
2018-03-18T18:53:13.454Z,56.50
2018-03-18T18:55:40.684Z,59.60
2018-03-18T18:58:06.973Z,59.60
2018-03-18T19:00:34.396Z,59.10
2018-03-18T19:03:01.499Z,58.50
2018-03-18T19:05:27.768Z,58.30
2018-03-18T19:07:55.104Z,58.90
2018-03-18T19:10:21.461Z,58.80
2018-03-18T19:12:47.795Z,59.00
2018-03-18T19:15:14.866Z,59.60
2018-03-18T19:17:41.176Z,59.60
2018-03-18T19:20:07.483Z,60.00
2018-03-18T19:22:35.702Z,60.80
2018-03-18T19:25:02.108Z,60.70
2018-03-18T19:27:29.131Z,61.20
2018-03-18T19:29:55.436Z,61.20
2018-03-18T19:32:21.744Z,61.40
2018-03-18T19:34:48.067Z,61.80
2018-03-18T19:37:14.387Z,62.20
2018-03-18T19:39:40.703Z,62.40
2018-03-18T19:42:07.749Z,63.20
2018-03-18T19:44:34.080Z,63.10
2018-03-18T19:47:00.450Z,63.50
2018-03-18T19:49:27.622Z,64.40
2018-03-18T19:51:53.978Z,64.30
2018-03-18T19:54:20.992Z,65.00
2018-03-18T19:56:47.380Z,65.00
2018-03-18T19:59:13.682Z,65.30
2018-03-18T20:01:39.988Z,65.90
2018-03-18T20:04:06.288Z,66.70
2018-03-18T20:06:32.824Z,66.80
2018-03-18T20:08:59.110Z,67.70
2018-03-18T20:11:26.158Z,68.20
2018-03-18T20:13:53.182Z,68.10
2018-03-18T20:16:19.534Z,68.00
2018-03-18T20:18:46.557Z,68.50
2018-03-18T20:21:12.826Z,68.50
2018-03-18T20:23:39.904Z,69.60
2018-03-18T20:26:06.211Z,69.50
2018-03-18T20:28:32.571Z,69.60
2018-03-18T20:30:59.898Z,70.30
2018-03-18T20:33:26.205Z,70.90
2018-03-18T20:35:53.468Z,71.60
2018-03-18T20:38:19.802Z,71.60
2018-03-18T20:40:46.091Z,72.50
2018-03-18T20:43:13.538Z,72.70
2018-03-18T20:45:39.840Z,73.30
2018-03-18T20:48:06.201Z,73.50
2018-03-18T20:50:32.510Z,74.10
2018-03-18T20:52:59.805Z,75.00
2018-03-18T20:55:26.865Z,75.90
2018-03-18T20:57:53.901Z,77.50
2018-03-18T21:00:20.942Z,77.70
2018-03-18T21:02:47.563Z,77.60
2018-03-18T21:05:14.752Z,79.10
2018-03-18T21:07:41.795Z,81.40
2018-03-18T21:10:09.160Z,81.40
2018-03-18T21:12:35.479Z,82.70
2018-03-18T21:15:02.532Z,84.80
2018-03-18T21:17:28.856Z,84.80
2018-03-18T21:19:55.897Z,88.10
2018-03-18T21:22:23.462Z,90.30
2018-03-18T21:24:50.514Z,91.30
2018-03-18T21:27:17.793Z,91.60
2018-03-18T21:29:44.082Z,91.50
2018-03-18T21:32:11.106Z,92.10
2018-03-18T21:34:37.460Z,92.00
2018-03-18T21:37:04.772Z,93.20
2018-03-18T21:39:31.072Z,93.20
2018-03-18T21:41:57.369Z,93.90
2018-03-18T21:44:23.644Z,94.80
2018-03-18T21:46:50.821Z,96.10
2018-03-18T21:49:17.129Z,95.70
2018-03-18T21:51:43.420Z,96.50
2018-03-18T21:54:10.433Z,97.20
2018-03-18T21:56:36.756Z,96.90
2018-03-18T21:59:03.073Z,97.30
2018-03-18T22:01:29.422Z,97.70
2018-03-18T22:03:55.717Z,98.60
2018-03-18T22:06:22.055Z,99.10
2018-03-18T22:08:49.973Z,99.60
2018-03-18T22:11:16.308Z,99.60
2018-03-18T22:13:44.273Z,99.50
2018-03-18T22:16:10.635Z,99.40
2018-03-18T22:18:36.936Z,99.90
2018-03-18T22:21:04.033Z,99.90
2018-03-18T22:23:31.053Z,99.90
2018-03-18T22:25:58.087Z,99.90
2018-03-18T22:28:25.122Z,99.90
2018-03-18T22:30:52.193Z,99.90
2018-03-18T22:33:19.239Z,99.90
2018-03-18T22:35:47.163Z,99.90
2018-03-18T22:38:13.459Z,99.90
2018-03-18T22:40:39.775Z,99.90
2018-03-18T22:43:06.080Z,99.90
2018-03-18T22:45:32.404Z,99.90
2018-03-18T22:47:59.469Z,99.90
2018-03-18T22:50:26.482Z,99.90
2018-03-18T22:52:52.848Z,99.90
2018-03-18T22:55:19.884Z,99.90
2018-03-18T22:57:46.933Z,99.90
2018-03-18T23:00:17.664Z,99.90
2018-03-18T23:02:44.416Z,99.90
2018-03-18T23:05:12.281Z,99.90
2018-03-18T23:07:39.313Z,99.90
2018-03-18T23:10:05.897Z,99.90
2018-03-18T23:12:32.187Z,99.90
2018-03-18T23:14:58.509Z,99.90
2018-03-18T23:17:25.564Z,99.90
2018-03-18T23:19:51.832Z,99.90
2018-03-18T23:22:19.759Z,99.90
2018-03-18T23:24:46.801Z,99.90
2018-03-18T23:27:14.053Z,99.90
2018-03-18T23:29:40.344Z,99.90
2018-03-18T23:32:06.625Z,99.90
2018-03-18T23:34:32.957Z,99.90
2018-03-18T23:36:59.268Z,99.90
2018-03-18T23:39:25.565Z,99.90
2018-03-18T23:41:51.860Z,99.90
2018-03-18T23:44:18.185Z,99.90
2018-03-18T23:46:45.278Z,99.90
2018-03-18T23:49:11.582Z,99.90
2018-03-18T23:51:37.877Z,99.90
2018-03-18T23:54:04.209Z,99.90
2018-03-18T23:56:31.245Z,99.90
2018-03-18T23:58:57.552Z,99.90
